sensor_id;sensor_type;location;lat;lon;timestamp;P1;durP1;ratioP1;P2;durP2;ratioP2
43620;SDS011;29213;50.770;7.298;2022-11-15T00:01:30;8.07;;;6.03;;
43620;SDS011;29213;50.770;7.298;2022-11-15T00:03:55;7.85;;;5.65;;
43620;SDS011;29213;50.770;7.298;2022-11-15T00:06:20;10.30;;;6.80;;
43620;SDS011;29213;50.770;7.298;2022-11-15T00:08:46;10.48;;;6.32;;
43620;SDS011;29213;50.770;7.298;2022-11-15T00:11:11;10.13;;;6.90;;
43620;SDS011;29213;50.770;7.298;2022-11-15T00:13:37;11.20;;;6.43;;
43620;SDS011;29213;50.770;7.298;2022-11-15T00:16:03;8.48;;;5.90;;
43620;SDS011;29213;50.770;7.298;2022-11-15T00:18:29;7.85;;;5.25;;
43620;SDS011;29213;50.770;7.298;2022-11-15T00:20:55;8.32;;;5.32;;
43620;SDS011;29213;50.770;7.298;2022-11-15T00:23:27;8.50;;;5.55;;
43620;SDS011;29213;50.770;7.298;2022-11-15T00:25:56;6.85;;;4.63;;
43620;SDS011;29213;50.770;7.298;2022-11-15T00:28:23;6.32;;;4.75;;
43620;SDS011;29213;50.770;7.298;2022-11-15T00:30:49;7.55;;;5.20;;
43620;SDS011;29213;50.770;7.298;2022-11-15T00:33:14;7.05;;;5.07;;
43620;SDS011;29213;50.770;7.298;2022-11-15T00:35:39;6.97;;;5.07;;
43620;SDS011;29213;50.770;7.298;2022-11-15T00:38:05;7.28;;;4.53;;
43620;SDS011;29213;50.770;7.298;2022-11-15T00:40:30;6.43;;;4.30;;
43620;SDS011;29213;50.770;7.298;2022-11-15T00:42:56;7.18;;;4.50;;
43620;SDS011;29213;50.770;7.298;2022-11-15T00:45:21;7.15;;;5.10;;
43620;SDS011;29213;50.770;7.298;2022-11-15T00:47:47;7.65;;;4.78;;
43620;SDS011;29213;50.770;7.298;2022-11-15T00:50:12;6.75;;;4.97;;
43620;SDS011;29213;50.770;7.298;2022-11-15T00:52:38;6.15;;;4.90;;
43620;SDS011;29213;50.770;7.298;2022-11-15T00:55:04;7.60;;;4.85;;
43620;SDS011;29213;50.770;7.298;2022-11-15T00:57:30;6.28;;;4.80;;
43620;SDS011;29213;50.770;7.298;2022-11-15T00:59:55;7.57;;;5.15;;
43620;SDS011;29213;50.770;7.298;2022-11-15T01:02:20;7.95;;;4.97;;
43620;SDS011;29213;50.770;7.298;2022-11-15T01:04:46;7.78;;;5.18;;
43620;SDS011;29213;50.770;7.298;2022-11-15T01:07:11;6.93;;;5.05;;
43620;SDS011;29213;50.770;7.298;2022-11-15T01:09:37;9.68;;;6.30;;
43620;SDS011;29213;50.770;7.298;2022-11-15T01:12:02;9.43;;;6.57;;
43620;SDS011;29213;50.770;7.298;2022-11-15T01:14:28;8.02;;;6.40;;
43620;SDS011;29213;50.770;7.298;2022-11-15T01:16:53;9.88;;;6.90;;
43620;SDS011;29213;50.770;7.298;2022-11-15T01:19:19;7.50;;;5.00;;
43620;SDS011;29213;50.770;7.298;2022-11-15T01:21:44;8.18;;;5.15;;
43620;SDS011;29213;50.770;7.298;2022-11-15T01:24:12;7.75;;;5.32;;
43620;SDS011;29213;50.770;7.298;2022-11-15T01:26:38;7.28;;;5.68;;
43620;SDS011;29213;50.770;7.298;2022-11-15T01:29:03;10.18;;;7.03;;
43620;SDS011;29213;50.770;7.298;2022-11-15T01:31:29;9.35;;;6.43;;
43620;SDS011;29213;50.770;7.298;2022-11-15T01:33:54;8.07;;;6.45;;
43620;SDS011;29213;50.770;7.298;2022-11-15T01:36:20;8.93;;;5.35;;
43620;SDS011;29213;50.770;7.298;2022-11-15T01:38:46;7.22;;;4.90;;
43620;SDS011;29213;50.770;7.298;2022-11-15T01:41:20;7.03;;;4.78;;
43620;SDS011;29213;50.770;7.298;2022-11-15T01:43:54;8.25;;;5.10;;
43620;SDS011;29213;50.770;7.298;2022-11-15T01:46:23;7.22;;;5.00;;
43620;SDS011;29213;50.770;7.298;2022-11-15T01:48:52;8.60;;;4.95;;
43620;SDS011;29213;50.770;7.298;2022-11-15T01:51:22;7.97;;;5.60;;
43620;SDS011;29213;50.770;7.298;2022-11-15T01:53:51;8.30;;;6.35;;
43620;SDS011;29213;50.770;7.298;2022-11-15T01:56:21;11.00;;;7.00;;
43620;SDS011;29213;50.770;7.298;2022-11-15T01:58:50;10.43;;;6.13;;
43620;SDS011;29213;50.770;7.298;2022-11-15T02:01:17;8.65;;;6.45;;
43620;SDS011;29213;50.770;7.298;2022-11-15T02:03:46;7.85;;;5.78;;
43620;SDS011;29213;50.770;7.298;2022-11-15T02:06:16;9.70;;;6.75;;
43620;SDS011;29213;50.770;7.298;2022-11-15T02:08:42;8.20;;;6.03;;
43620;SDS011;29213;50.770;7.298;2022-11-15T02:11:09;8.55;;;6.07;;
43620;SDS011;29213;50.770;7.298;2022-11-15T02:13:35;8.88;;;6.72;;
43620;SDS011;29213;50.770;7.298;2022-11-15T02:22:01;10.20;;;6.13;;
43620;SDS011;29213;50.770;7.298;2022-11-15T02:24:49;9.48;;;5.88;;
43620;SDS011;29213;50.770;7.298;2022-11-15T02:30:25;8.88;;;5.80;;
43620;SDS011;29213;50.770;7.298;2022-11-15T02:36:15;9.85;;;5.70;;
43620;SDS011;29213;50.770;7.298;2022-11-15T02:42:04;7.82;;;5.13;;
43620;SDS011;29213;50.770;7.298;2022-11-15T02:44:54;7.43;;;5.38;;
43620;SDS011;29213;50.770;7.298;2022-11-15T02:47:22;9.25;;;5.55;;
43620;SDS011;29213;50.770;7.298;2022-11-15T02:49:51;7.78;;;5.80;;
43620;SDS011;29213;50.770;7.298;2022-11-15T02:52:22;8.10;;;5.30;;
43620;SDS011;29213;50.770;7.298;2022-11-15T02:54:57;7.50;;;5.32;;
43620;SDS011;29213;50.770;7.298;2022-11-15T02:57:45;8.60;;;5.60;;
43620;SDS011;29213;50.770;7.298;2022-11-15T03:00:19;7.47;;;5.63;;
43620;SDS011;29213;50.770;7.298;2022-11-15T03:02:57;9.48;;;6.43;;
43620;SDS011;29213;50.770;7.298;2022-11-15T03:05:35;8.57;;;6.20;;
43620;SDS011;29213;50.770;7.298;2022-11-15T03:08:22;7.47;;;6.05;;
43620;SDS011;29213;50.770;7.298;2022-11-15T03:11:12;7.82;;;6.03;;
43620;SDS011;29213;50.770;7.298;2022-11-15T03:13:57;7.50;;;6.15;;
43620;SDS011;29213;50.770;7.298;2022-11-15T03:17:15;8.98;;;6.20;;
43620;SDS011;29213;50.770;7.298;2022-11-15T03:19:32;9.02;;;6.07;;
43620;SDS011;29213;50.770;7.298;2022-11-15T03:22:08;10.18;;;6.35;;
43620;SDS011;29213;50.770;7.298;2022-11-15T03:24:36;9.10;;;6.07;;
43620;SDS011;29213;50.770;7.298;2022-11-15T03:27:04;7.95;;;5.93;;
43620;SDS011;29213;50.770;7.298;2022-11-15T03:29:32;7.70;;;5.78;;
43620;SDS011;29213;50.770;7.298;2022-11-15T03:32:04;7.20;;;5.53;;
43620;SDS011;29213;50.770;7.298;2022-11-15T03:37:22;7.15;;;5.82;;
43620;SDS011;29213;50.770;7.298;2022-11-15T03:39:54;8.32;;;6.05;;
43620;SDS011;29213;50.770;7.298;2022-11-15T03:45:19;8.77;;;5.60;;
43620;SDS011;29213;50.770;7.298;2022-11-15T03:47:49;9.38;;;6.32;;
43620;SDS011;29213;50.770;7.298;2022-11-15T03:50:20;7.93;;;5.97;;
43620;SDS011;29213;50.770;7.298;2022-11-15T03:52:48;6.35;;;5.47;;
43620;SDS011;29213;50.770;7.298;2022-11-15T03:55:18;7.95;;;5.40;;
43620;SDS011;29213;50.770;7.298;2022-11-15T03:57:46;6.78;;;5.47;;
43620;SDS011;29213;50.770;7.298;2022-11-15T04:00:14;7.07;;;5.35;;
43620;SDS011;29213;50.770;7.298;2022-11-15T04:02:40;7.47;;;5.25;;
43620;SDS011;29213;50.770;7.298;2022-11-15T04:05:05;6.18;;;5.05;;
43620;SDS011;29213;50.770;7.298;2022-11-15T04:07:31;7.85;;;5.32;;
43620;SDS011;29213;50.770;7.298;2022-11-15T04:09:56;7.18;;;5.15;;
43620;SDS011;29213;50.770;7.298;2022-11-15T04:12:32;7.28;;;5.07;;
43620;SDS011;29213;50.770;7.298;2022-11-15T04:15:00;6.97;;;5.05;;
43620;SDS011;29213;50.770;7.298;2022-11-15T04:17:40;6.43;;;5.05;;
43620;SDS011;29213;50.770;7.298;2022-11-15T04:20:11;8.63;;;5.30;;
43620;SDS011;29213;50.770;7.298;2022-11-15T04:23:03;6.72;;;4.72;;
43620;SDS011;29213;50.770;7.298;2022-11-15T04:25:49;6.93;;;4.90;;
43620;SDS011;29213;50.770;7.298;2022-11-15T04:28:18;7.07;;;4.35;;
43620;SDS011;29213;50.770;7.298;2022-11-15T04:30:43;5.70;;;4.40;;
43620;SDS011;29213;50.770;7.298;2022-11-15T04:33:09;6.43;;;4.55;;
43620;SDS011;29213;50.770;7.298;2022-11-15T04:35:34;5.68;;;4.32;;
43620;SDS011;29213;50.770;7.298;2022-11-15T04:38:00;5.95;;;4.32;;
43620;SDS011;29213;50.770;7.298;2022-11-15T04:40:26;5.28;;;3.80;;
43620;SDS011;29213;50.770;7.298;2022-11-15T04:42:52;5.13;;;3.65;;
43620;SDS011;29213;50.770;7.298;2022-11-15T04:45:17;5.60;;;4.00;;
43620;SDS011;29213;50.770;7.298;2022-11-15T04:47:43;5.05;;;3.88;;
43620;SDS011;29213;50.770;7.298;2022-11-15T04:50:10;6.05;;;4.15;;
43620;SDS011;29213;50.770;7.298;2022-11-15T04:52:39;5.53;;;3.97;;
43620;SDS011;29213;50.770;7.298;2022-11-15T04:55:06;5.78;;;4.50;;
43620;SDS011;29213;50.770;7.298;2022-11-15T04:57:31;6.82;;;4.38;;
43620;SDS011;29213;50.770;7.298;2022-11-15T04:59:57;7.47;;;4.25;;
43620;SDS011;29213;50.770;7.298;2022-11-15T05:02:22;5.47;;;4.13;;
43620;SDS011;29213;50.770;7.298;2022-11-15T05:04:48;5.38;;;4.00;;
43620;SDS011;29213;50.770;7.298;2022-11-15T05:07:13;5.40;;;3.90;;
43620;SDS011;29213;50.770;7.298;2022-11-15T05:09:38;5.88;;;3.90;;
43620;SDS011;29213;50.770;7.298;2022-11-15T05:12:04;5.32;;;3.85;;
43620;SDS011;29213;50.770;7.298;2022-11-15T05:14:29;6.28;;;4.32;;
43620;SDS011;29213;50.770;7.298;2022-11-15T05:16:55;5.85;;;3.80;;
43620;SDS011;29213;50.770;7.298;2022-11-15T05:19:20;5.63;;;4.00;;
43620;SDS011;29213;50.770;7.298;2022-11-15T05:21:46;5.45;;;3.50;;
43620;SDS011;29213;50.770;7.298;2022-11-15T05:24:13;5.00;;;3.65;;
43620;SDS011;29213;50.770;7.298;2022-11-15T05:26:38;5.38;;;3.45;;
43620;SDS011;29213;50.770;7.298;2022-11-15T05:29:03;6.32;;;3.50;;
43620;SDS011;29213;50.770;7.298;2022-11-15T05:31:29;5.82;;;3.75;;
43620;SDS011;29213;50.770;7.298;2022-11-15T05:33:55;6.32;;;3.45;;
43620;SDS011;29213;50.770;7.298;2022-11-15T05:39:09;5.55;;;3.75;;
43620;SDS011;29213;50.770;7.298;2022-11-15T05:41:44;6.30;;;4.10;;
43620;SDS011;29213;50.770;7.298;2022-11-15T05:44:15;6.38;;;3.83;;
43620;SDS011;29213;50.770;7.298;2022-11-15T05:46:44;6.10;;;4.13;;
43620;SDS011;29213;50.770;7.298;2022-11-15T05:49:11;5.18;;;3.50;;
43620;SDS011;29213;50.770;7.298;2022-11-15T05:54:07;4.90;;;3.40;;
43620;SDS011;29213;50.770;7.298;2022-11-15T05:56:33;5.20;;;3.30;;
43620;SDS011;29213;50.770;7.298;2022-11-15T05:58:58;5.47;;;3.35;;
43620;SDS011;29213;50.770;7.298;2022-11-15T06:01:26;4.47;;;3.25;;
43620;SDS011;29213;50.770;7.298;2022-11-15T06:03:52;4.90;;;3.40;;
43620;SDS011;29213;50.770;7.298;2022-11-15T06:06:17;4.82;;;3.40;;
43620;SDS011;29213;50.770;7.298;2022-11-15T06:08:42;5.30;;;3.00;;
43620;SDS011;29213;50.770;7.298;2022-11-15T06:11:08;4.32;;;3.10;;
43620;SDS011;29213;50.770;7.298;2022-11-15T06:13:33;4.93;;;2.92;;
43620;SDS011;29213;50.770;7.298;2022-11-15T06:15:59;4.90;;;3.22;;
43620;SDS011;29213;50.770;7.298;2022-11-15T06:18:24;4.28;;;3.03;;
43620;SDS011;29213;50.770;7.298;2022-11-15T06:20:50;4.25;;;2.95;;
43620;SDS011;29213;50.770;7.298;2022-11-15T06:23:15;4.47;;;3.10;;
43620;SDS011;29213;50.770;7.298;2022-11-15T06:25:41;5.88;;;3.75;;
43620;SDS011;29213;50.770;7.298;2022-11-15T06:28:06;5.90;;;3.85;;
43620;SDS011;29213;50.770;7.298;2022-11-15T06:30:32;6.88;;;3.58;;
43620;SDS011;29213;50.770;7.298;2022-11-15T06:33:01;6.63;;;3.25;;
43620;SDS011;29213;50.770;7.298;2022-11-15T06:35:27;4.45;;;2.70;;
43620;SDS011;29213;50.770;7.298;2022-11-15T06:37:53;5.18;;;3.00;;
43620;SDS011;29213;50.770;7.298;2022-11-15T06:40:19;6.85;;;2.80;;
43620;SDS011;29213;50.770;7.298;2022-11-15T06:42:44;4.30;;;3.10;;
43620;SDS011;29213;50.770;7.298;2022-11-15T06:45:10;4.32;;;2.90;;
43620;SDS011;29213;50.770;7.298;2022-11-15T06:47:35;4.90;;;3.10;;
43620;SDS011;29213;50.770;7.298;2022-11-15T06:50:01;4.45;;;2.70;;
43620;SDS011;29213;50.770;7.298;2022-11-15T06:52:26;4.47;;;3.00;;
43620;SDS011;29213;50.770;7.298;2022-11-15T06:54:51;4.75;;;2.90;;
43620;SDS011;29213;50.770;7.298;2022-11-15T06:57:17;4.70;;;2.88;;
43620;SDS011;29213;50.770;7.298;2022-11-15T06:59:42;5.78;;;3.13;;
43620;SDS011;29213;50.770;7.298;2022-11-15T07:02:14;6.93;;;3.47;;
43620;SDS011;29213;50.770;7.298;2022-11-15T07:04:39;5.32;;;3.33;;
43620;SDS011;29213;50.770;7.298;2022-11-15T07:07:04;5.22;;;3.60;;
43620;SDS011;29213;50.770;7.298;2022-11-15T07:09:30;5.93;;;3.67;;
43620;SDS011;29213;50.770;7.298;2022-11-15T07:11:55;5.55;;;4.03;;
43620;SDS011;29213;50.770;7.298;2022-11-15T07:14:20;5.32;;;3.45;;
43620;SDS011;29213;50.770;7.298;2022-11-15T07:16:46;5.25;;;2.92;;
43620;SDS011;29213;50.770;7.298;2022-11-15T07:19:11;5.60;;;3.03;;
43620;SDS011;29213;50.770;7.298;2022-11-15T07:21:37;5.55;;;3.65;;
43620;SDS011;29213;50.770;7.298;2022-11-15T07:24:02;6.93;;;4.57;;
43620;SDS011;29213;50.770;7.298;2022-11-15T07:26:29;4.75;;;3.20;;
43620;SDS011;29213;50.770;7.298;2022-11-15T07:28:54;5.85;;;3.30;;
43620;SDS011;29213;50.770;7.298;2022-11-15T07:31:19;6.30;;;2.95;;
43620;SDS011;29213;50.770;7.298;2022-11-15T07:33:45;3.90;;;2.70;;
43620;SDS011;29213;50.770;7.298;2022-11-15T07:36:10;5.97;;;3.35;;
43620;SDS011;29213;50.770;7.298;2022-11-15T07:38:36;6.45;;;3.35;;
43620;SDS011;29213;50.770;7.298;2022-11-15T07:41:04;6.30;;;3.90;;
43620;SDS011;29213;50.770;7.298;2022-11-15T07:43:30;5.25;;;3.78;;
43620;SDS011;29213;50.770;7.298;2022-11-15T07:45:58;5.88;;;4.20;;
43620;SDS011;29213;50.770;7.298;2022-11-15T07:48:23;6.40;;;4.60;;
43620;SDS011;29213;50.770;7.298;2022-11-15T07:50:48;4.95;;;3.65;;
43620;SDS011;29213;50.770;7.298;2022-11-15T07:53:14;5.47;;;3.50;;
43620;SDS011;29213;50.770;7.298;2022-11-15T07:55:41;6.65;;;3.60;;
43620;SDS011;29213;50.770;7.298;2022-11-15T07:58:08;6.13;;;3.22;;
43620;SDS011;29213;50.770;7.298;2022-11-15T08:00:35;4.93;;;3.42;;
43620;SDS011;29213;50.770;7.298;2022-11-15T08:03:05;5.22;;;3.50;;
43620;SDS011;29213;50.770;7.298;2022-11-15T08:05:33;5.38;;;3.58;;
43620;SDS011;29213;50.770;7.298;2022-11-15T08:07:59;5.50;;;3.38;;
43620;SDS011;29213;50.770;7.298;2022-11-15T08:10:25;5.00;;;3.15;;
43620;SDS011;29213;50.770;7.298;2022-11-15T08:12:58;6.53;;;3.10;;
43620;SDS011;29213;50.770;7.298;2022-11-15T08:15:27;4.45;;;2.85;;
43620;SDS011;29213;50.770;7.298;2022-11-15T08:17:57;5.97;;;3.05;;
43620;SDS011;29213;50.770;7.298;2022-11-15T08:22:49;4.65;;;2.75;;
43620;SDS011;29213;50.770;7.298;2022-11-15T08:25:15;4.40;;;2.80;;
43620;SDS011;29213;50.770;7.298;2022-11-15T08:27:40;4.07;;;2.38;;
43620;SDS011;29213;50.770;7.298;2022-11-15T08:30:06;4.55;;;2.63;;
43620;SDS011;29213;50.770;7.298;2022-11-15T08:32:32;4.88;;;2.58;;
43620;SDS011;29213;50.770;7.298;2022-11-15T08:34:57;5.28;;;2.78;;
43620;SDS011;29213;50.770;7.298;2022-11-15T08:37:23;3.95;;;2.60;;
43620;SDS011;29213;50.770;7.298;2022-11-15T08:39:48;4.10;;;2.60;;
43620;SDS011;29213;50.770;7.298;2022-11-15T08:42:14;3.55;;;2.22;;
43620;SDS011;29213;50.770;7.298;2022-11-15T08:44:41;3.78;;;2.20;;
43620;SDS011;29213;50.770;7.298;2022-11-15T08:47:07;3.85;;;2.15;;
43620;SDS011;29213;50.770;7.298;2022-11-15T08:49:32;3.13;;;2.00;;
43620;SDS011;29213;50.770;7.298;2022-11-15T08:51:57;3.50;;;2.00;;
43620;SDS011;29213;50.770;7.298;2022-11-15T08:54:23;3.40;;;2.00;;
43620;SDS011;29213;50.770;7.298;2022-11-15T08:56:48;3.25;;;1.80;;
43620;SDS011;29213;50.770;7.298;2022-11-15T08:59:14;3.28;;;1.70;;
43620;SDS011;29213;50.770;7.298;2022-11-15T09:01:39;2.97;;;1.63;;
43620;SDS011;29213;50.770;7.298;2022-11-15T09:04:05;2.60;;;1.48;;
43620;SDS011;29213;50.770;7.298;2022-11-15T09:06:30;3.33;;;1.38;;
43620;SDS011;29213;50.770;7.298;2022-11-15T09:08:56;2.70;;;1.40;;
43620;SDS011;29213;50.770;7.298;2022-11-15T09:11:22;3.88;;;2.03;;
43620;SDS011;29213;50.770;7.298;2022-11-15T09:13:48;4.53;;;1.98;;
43620;SDS011;29213;50.770;7.298;2022-11-15T09:16:14;4.65;;;1.50;;
43620;SDS011;29213;50.770;7.298;2022-11-15T09:18:40;2.85;;;1.27;;
43620;SDS011;29213;50.770;7.298;2022-11-15T09:21:07;3.05;;;1.45;;
43620;SDS011;29213;50.770;7.298;2022-11-15T09:23:33;4.20;;;1.25;;
43620;SDS011;29213;50.770;7.298;2022-11-15T09:25:59;2.97;;;1.40;;
43620;SDS011;29213;50.770;7.298;2022-11-15T09:28:27;3.08;;;1.30;;
43620;SDS011;29213;50.770;7.298;2022-11-15T09:30:56;3.08;;;1.40;;
43620;SDS011;29213;50.770;7.298;2022-11-15T09:33:23;3.25;;;1.38;;
43620;SDS011;29213;50.770;7.298;2022-11-15T09:35:49;2.97;;;1.10;;
43620;SDS011;29213;50.770;7.298;2022-11-15T09:38:14;2.33;;;1.20;;
43620;SDS011;29213;50.770;7.298;2022-11-15T09:40:40;2.58;;;1.13;;
43620;SDS011;29213;50.770;7.298;2022-11-15T09:51:18;3.67;;;1.27;;
43620;SDS011;29213;50.770;7.298;2022-11-15T09:59:22;2.80;;;1.27;;
43620;SDS011;29213;50.770;7.298;2022-11-15T10:04:27;2.65;;;1.02;;
43620;SDS011;29213;50.770;7.298;2022-11-15T10:09:39;3.10;;;1.30;;
43620;SDS011;29213;50.770;7.298;2022-11-15T10:12:12;3.00;;;1.10;;
43620;SDS011;29213;50.770;7.298;2022-11-15T10:14:38;3.78;;;1.02;;
43620;SDS011;29213;50.770;7.298;2022-11-15T10:17:17;3.97;;;1.00;;
43620;SDS011;29213;50.770;7.298;2022-11-15T10:27:53;3.03;;;1.10;;
43620;SDS011;29213;50.770;7.298;2022-11-15T10:30:44;2.50;;;1.00;;
43620;SDS011;29213;50.770;7.298;2022-11-15T10:33:20;2.95;;;1.10;;
43620;SDS011;29213;50.770;7.298;2022-11-15T10:35:47;2.58;;;1.05;;
43620;SDS011;29213;50.770;7.298;2022-11-15T10:38:13;2.97;;;1.00;;
43620;SDS011;29213;50.770;7.298;2022-11-15T10:40:39;3.35;;;1.20;;
43620;SDS011;29213;50.770;7.298;2022-11-15T10:45:34;3.38;;;1.08;;
43620;SDS011;29213;50.770;7.298;2022-11-15T10:50:39;2.75;;;1.00;;
43620;SDS011;29213;50.770;7.298;2022-11-15T10:55:51;1.90;;;0.95;;
43620;SDS011;29213;50.770;7.298;2022-11-15T11:01:17;4.63;;;1.13;;
43620;SDS011;29213;50.770;7.298;2022-11-15T11:03:45;2.55;;;1.00;;
43620;SDS011;29213;50.770;7.298;2022-11-15T11:06:45;4.30;;;0.80;;
43620;SDS011;29213;50.770;7.298;2022-11-15T11:09:21;3.30;;;1.10;;
43620;SDS011;29213;50.770;7.298;2022-11-15T11:11:51;2.55;;;1.10;;
43620;SDS011;29213;50.770;7.298;2022-11-15T11:14:24;1.80;;;0.90;;
43620;SDS011;29213;50.770;7.298;2022-11-15T11:35:22;3.55;;;1.30;;
43620;SDS011;29213;50.770;7.298;2022-11-15T11:40:32;3.28;;;1.00;;
43620;SDS011;29213;50.770;7.298;2022-11-15T11:48:25;3.90;;;1.10;;
43620;SDS011;29213;50.770;7.298;2022-11-15T11:51:18;2.60;;;1.00;;
43620;SDS011;29213;50.770;7.298;2022-11-15T11:54:01;2.75;;;1.00;;
43620;SDS011;29213;50.770;7.298;2022-11-15T11:56:34;4.00;;;1.20;;
43620;SDS011;29213;50.770;7.298;2022-11-15T11:59:07;3.30;;;1.17;;
43620;SDS011;29213;50.770;7.298;2022-11-15T12:01:44;3.90;;;1.23;;
43620;SDS011;29213;50.770;7.298;2022-11-15T12:06:54;3.78;;;1.20;;
43620;SDS011;29213;50.770;7.298;2022-11-15T12:17:13;3.25;;;1.40;;
43620;SDS011;29213;50.770;7.298;2022-11-15T12:19:41;3.75;;;1.77;;
43620;SDS011;29213;50.770;7.298;2022-11-15T12:22:17;3.33;;;1.50;;
43620;SDS011;29213;50.770;7.298;2022-11-15T12:24:57;4.43;;;1.80;;
43620;SDS011;29213;50.770;7.298;2022-11-15T12:27:38;5.40;;;1.80;;
43620;SDS011;29213;50.770;7.298;2022-11-15T12:30:17;3.85;;;1.85;;
43620;SDS011;29213;50.770;7.298;2022-11-15T12:38:03;3.97;;;1.88;;
43620;SDS011;29213;50.770;7.298;2022-11-15T12:40:30;4.88;;;2.30;;
43620;SDS011;29213;50.770;7.298;2022-11-15T12:45:39;3.58;;;1.98;;
43620;SDS011;29213;50.770;7.298;2022-11-15T12:58:46;3.63;;;1.80;;
43620;SDS011;29213;50.770;7.298;2022-11-15T13:11:57;4.10;;;2.00;;
43620;SDS011;29213;50.770;7.298;2022-11-15T13:14:54;5.03;;;2.22;;
43620;SDS011;29213;50.770;7.298;2022-11-15T13:22:27;3.67;;;2.20;;
43620;SDS011;29213;50.770;7.298;2022-11-15T13:33:15;4.00;;;1.80;;
43620;SDS011;29213;50.770;7.298;2022-11-15T13:35:46;4.82;;;2.00;;
43620;SDS011;29213;50.770;7.298;2022-11-15T13:40:52;4.07;;;2.05;;
43620;SDS011;29213;50.770;7.298;2022-11-15T13:46:03;4.38;;;1.95;;
43620;SDS011;29213;50.770;7.298;2022-11-15T13:48:31;3.83;;;1.85;;
43620;SDS011;29213;50.770;7.298;2022-11-15T13:50:59;4.60;;;2.22;;
43620;SDS011;29213;50.770;7.298;2022-11-15T13:53:27;4.70;;;2.72;;
43620;SDS011;29213;50.770;7.298;2022-11-15T13:55:53;5.43;;;2.30;;
43620;SDS011;29213;50.770;7.298;2022-11-15T13:58:22;4.03;;;1.60;;
43620;SDS011;29213;50.770;7.298;2022-11-15T14:00:47;3.22;;;1.60;;
43620;SDS011;29213;50.770;7.298;2022-11-15T14:05:40;3.20;;;1.50;;
43620;SDS011;29213;50.770;7.298;2022-11-15T14:10:41;3.88;;;1.80;;
43620;SDS011;29213;50.770;7.298;2022-11-15T14:13:10;4.15;;;1.80;;
43620;SDS011;29213;50.770;7.298;2022-11-15T14:15:52;3.90;;;1.70;;
43620;SDS011;29213;50.770;7.298;2022-11-15T14:21:07;5.68;;;2.40;;
43620;SDS011;29213;50.770;7.298;2022-11-15T14:23:33;3.25;;;1.90;;
43620;SDS011;29213;50.770;7.298;2022-11-15T14:25:59;6.95;;;2.70;;
43620;SDS011;29213;50.770;7.298;2022-11-15T14:30:51;5.28;;;2.53;;
43620;SDS011;29213;50.770;7.298;2022-11-15T14:33:20;3.78;;;1.80;;
43620;SDS011;29213;50.770;7.298;2022-11-15T14:35:48;3.58;;;1.60;;
43620;SDS011;29213;50.770;7.298;2022-11-15T14:38:13;6.03;;;1.80;;
43620;SDS011;29213;50.770;7.298;2022-11-15T14:40:39;3.17;;;1.50;;
43620;SDS011;29213;50.770;7.298;2022-11-15T14:43:07;3.88;;;1.90;;
43620;SDS011;29213;50.770;7.298;2022-11-15T14:45:34;4.38;;;1.52;;
43620;SDS011;29213;50.770;7.298;2022-11-15T14:47:59;3.05;;;1.60;;
43620;SDS011;29213;50.770;7.298;2022-11-15T14:50:25;7.28;;;2.38;;
43620;SDS011;29213;50.770;7.298;2022-11-15T14:52:52;5.38;;;1.80;;
43620;SDS011;29213;50.770;7.298;2022-11-15T14:55:22;5.18;;;1.63;;
43620;SDS011;29213;50.770;7.298;2022-11-15T14:57:49;4.47;;;1.60;;
43620;SDS011;29213;50.770;7.298;2022-11-15T15:00:15;4.30;;;1.75;;
43620;SDS011;29213;50.770;7.298;2022-11-15T15:02:42;4.90;;;1.92;;
43620;SDS011;29213;50.770;7.298;2022-11-15T15:05:30;3.53;;;1.77;;
43620;SDS011;29213;50.770;7.298;2022-11-15T15:07:58;4.72;;;2.58;;
43620;SDS011;29213;50.770;7.298;2022-11-15T15:10:24;4.68;;;2.00;;
43620;SDS011;29213;50.770;7.298;2022-11-15T15:12:52;4.70;;;2.33;;
43620;SDS011;29213;50.770;7.298;2022-11-15T15:15:21;3.28;;;1.73;;
43620;SDS011;29213;50.770;7.298;2022-11-15T15:17:49;3.65;;;1.60;;
43620;SDS011;29213;50.770;7.298;2022-11-15T15:20:15;4.57;;;2.00;;
43620;SDS011;29213;50.770;7.298;2022-11-15T15:22:41;3.33;;;1.80;;
43620;SDS011;29213;50.770;7.298;2022-11-15T15:25:23;5.65;;;2.30;;
43620;SDS011;29213;50.770;7.298;2022-11-15T15:27:54;5.75;;;2.00;;
43620;SDS011;29213;50.770;7.298;2022-11-15T15:30:20;4.22;;;2.10;;
43620;SDS011;29213;50.770;7.298;2022-11-15T15:32:46;4.78;;;2.17;;
43620;SDS011;29213;50.770;7.298;2022-11-15T15:35:13;4.57;;;2.67;;
43620;SDS011;29213;50.770;7.298;2022-11-15T15:37:39;5.55;;;3.03;;
43620;SDS011;29213;50.770;7.298;2022-11-15T15:40:24;5.13;;;3.15;;
43620;SDS011;29213;50.770;7.298;2022-11-15T15:42:51;5.32;;;2.97;;
43620;SDS011;29213;50.770;7.298;2022-11-15T15:45:17;4.80;;;2.95;;
43620;SDS011;29213;50.770;7.298;2022-11-15T15:47:43;4.65;;;2.47;;
43620;SDS011;29213;50.770;7.298;2022-11-15T15:52:52;5.05;;;2.50;;
43620;SDS011;29213;50.770;7.298;2022-11-15T15:55:18;4.22;;;2.03;;
43620;SDS011;29213;50.770;7.298;2022-11-15T15:57:44;4.70;;;2.10;;
43620;SDS011;29213;50.770;7.298;2022-11-15T16:00:09;5.07;;;2.50;;
43620;SDS011;29213;50.770;7.298;2022-11-15T16:02:36;4.25;;;2.10;;
43620;SDS011;29213;50.770;7.298;2022-11-15T16:05:01;3.58;;;2.00;;
43620;SDS011;29213;50.770;7.298;2022-11-15T16:07:27;5.25;;;2.25;;
43620;SDS011;29213;50.770;7.298;2022-11-15T16:09:54;5.72;;;2.25;;
43620;SDS011;29213;50.770;7.298;2022-11-15T16:12:33;6.28;;;2.08;;
43620;SDS011;29213;50.770;7.298;2022-11-15T16:14:59;4.30;;;2.35;;
43620;SDS011;29213;50.770;7.298;2022-11-15T16:17:31;4.78;;;2.20;;
43620;SDS011;29213;50.770;7.298;2022-11-15T16:19:58;4.63;;;2.20;;
43620;SDS011;29213;50.770;7.298;2022-11-15T16:22:24;4.00;;;1.80;;
43620;SDS011;29213;50.770;7.298;2022-11-15T16:24:49;4.07;;;2.08;;
43620;SDS011;29213;50.770;7.298;2022-11-15T16:27:15;3.45;;;2.00;;
43620;SDS011;29213;50.770;7.298;2022-11-15T16:29:43;5.20;;;2.50;;
43620;SDS011;29213;50.770;7.298;2022-11-15T16:32:09;4.43;;;2.03;;
43620;SDS011;29213;50.770;7.298;2022-11-15T16:34:34;3.25;;;1.73;;
43620;SDS011;29213;50.770;7.298;2022-11-15T16:37:00;3.30;;;1.85;;
43620;SDS011;29213;50.770;7.298;2022-11-15T16:39:26;5.13;;;2.47;;
43620;SDS011;29213;50.770;7.298;2022-11-15T16:41:53;13.45;;;8.15;;
43620;SDS011;29213;50.770;7.298;2022-11-15T16:44:18;6.63;;;4.65;;
43620;SDS011;29213;50.770;7.298;2022-11-15T16:46:44;5.78;;;2.30;;
43620;SDS011;29213;50.770;7.298;2022-11-15T16:49:16;4.38;;;2.40;;
43620;SDS011;29213;50.770;7.298;2022-11-15T16:51:44;4.55;;;2.30;;
43620;SDS011;29213;50.770;7.298;2022-11-15T16:54:11;5.15;;;2.60;;
43620;SDS011;29213;50.770;7.298;2022-11-15T16:56:37;6.45;;;2.90;;
43620;SDS011;29213;50.770;7.298;2022-11-15T16:59:03;4.55;;;2.42;;
43620;SDS011;29213;50.770;7.298;2022-11-15T17:01:30;4.35;;;2.70;;
43620;SDS011;29213;50.770;7.298;2022-11-15T17:04:00;4.45;;;2.92;;
43620;SDS011;29213;50.770;7.298;2022-11-15T17:06:40;4.32;;;2.70;;
43620;SDS011;29213;50.770;7.298;2022-11-15T17:09:10;5.68;;;2.95;;
43620;SDS011;29213;50.770;7.298;2022-11-15T17:11:39;4.35;;;2.80;;
43620;SDS011;29213;50.770;7.298;2022-11-15T17:14:05;6.35;;;3.20;;
43620;SDS011;29213;50.770;7.298;2022-11-15T17:16:30;5.43;;;3.30;;
43620;SDS011;29213;50.770;7.298;2022-11-15T17:18:56;5.53;;;3.67;;
43620;SDS011;29213;50.770;7.298;2022-11-15T17:21:21;4.25;;;3.22;;
43620;SDS011;29213;50.770;7.298;2022-11-15T17:23:47;6.20;;;3.13;;
43620;SDS011;29213;50.770;7.298;2022-11-15T17:26:13;6.22;;;3.45;;
43620;SDS011;29213;50.770;7.298;2022-11-15T17:28:40;6.00;;;3.60;;
43620;SDS011;29213;50.770;7.298;2022-11-15T17:31:06;5.70;;;4.40;;
43620;SDS011;29213;50.770;7.298;2022-11-15T17:33:33;6.50;;;4.05;;
43620;SDS011;29213;50.770;7.298;2022-11-15T17:36:00;6.97;;;4.10;;
43620;SDS011;29213;50.770;7.298;2022-11-15T17:38:26;6.47;;;4.03;;
43620;SDS011;29213;50.770;7.298;2022-11-15T17:41:02;6.32;;;4.18;;